createdAt,value
2018-12-20T00:01:29.108Z,18.77
2018-12-20T00:03:59.006Z,17.40
2018-12-20T00:06:27.828Z,17.83
2018-12-20T00:08:56.805Z,17.10
2018-12-20T00:11:25.771Z,15.80
2018-12-20T00:13:54.759Z,17.13
2018-12-20T00:16:23.578Z,18.47
2018-12-20T00:18:52.369Z,16.90
2018-12-20T00:21:21.491Z,16.93
2018-12-20T00:23:50.375Z,16.23
2018-12-20T00:26:19.255Z,14.53
2018-12-20T00:28:48.004Z,16.50
2018-12-20T00:31:17.087Z,16.50
2018-12-20T00:33:46.002Z,14.40
2018-12-20T00:36:14.919Z,13.73
2018-12-20T00:38:43.549Z,15.70
2018-12-20T00:41:12.419Z,15.00
2018-12-20T00:43:41.169Z,14.97
2018-12-20T00:46:09.983Z,13.80
2018-12-20T00:48:38.872Z,14.97
2018-12-20T00:51:07.752Z,15.87
2018-12-20T00:53:36.565Z,14.60
2018-12-20T00:56:05.462Z,14.23
2018-12-20T00:58:34.272Z,14.43
2018-12-20T01:01:05.094Z,14.07
2018-12-20T01:03:33.914Z,14.10
2018-12-20T01:06:02.817Z,14.90
2018-12-20T01:08:31.582Z,13.73
2018-12-20T01:11:00.505Z,12.70
2018-12-20T01:13:29.187Z,13.40
2018-12-20T01:15:58.026Z,13.37
2018-12-20T01:18:27.992Z,13.87
2018-12-20T01:20:56.716Z,12.80
2018-12-20T01:23:25.670Z,13.13
2018-12-20T01:25:54.686Z,12.00
2018-12-20T01:28:26.319Z,11.77
2018-12-20T01:30:55.020Z,11.37
2018-12-20T01:33:24.463Z,11.97
2018-12-20T01:35:55.214Z,12.57
2018-12-20T01:38:23.866Z,11.87
2018-12-20T01:40:52.522Z,11.50
2018-12-20T01:43:22.322Z,12.13
2018-12-20T01:45:51.027Z,11.97
2018-12-20T01:48:22.099Z,11.37
2018-12-20T01:50:50.996Z,11.73
2018-12-20T01:53:20.164Z,12.30
2018-12-20T01:55:48.831Z,10.70
2018-12-20T01:58:17.716Z,12.37
2018-12-20T02:00:46.510Z,11.13
2018-12-20T02:03:15.225Z,10.63
2018-12-20T02:05:44.034Z,13.30
2018-12-20T02:08:13.202Z,12.00
2018-12-20T02:10:42.013Z,11.90
2018-12-20T02:13:10.684Z,11.80
2018-12-20T02:15:39.509Z,11.30
2018-12-20T02:18:08.315Z,10.67
2018-12-20T02:20:39.206Z,10.73
2018-12-20T02:23:10.998Z,10.23
2018-12-20T02:25:41.835Z,11.33
2018-12-20T02:28:10.604Z,10.70
2018-12-20T02:30:39.380Z,10.10
2018-12-20T02:33:08.294Z,10.00
2018-12-20T02:35:39.054Z,10.53
2018-12-20T02:38:07.913Z,9.90
2018-12-20T02:40:36.766Z,10.17
2018-12-20T02:43:05.872Z,9.90
2018-12-20T02:45:34.966Z,10.50
2018-12-20T02:48:04.294Z,10.20
2018-12-20T02:50:33.060Z,9.73
2018-12-20T02:53:01.930Z,9.27
2018-12-20T02:55:31.017Z,8.73
2018-12-20T02:57:59.903Z,10.00
2018-12-20T03:00:28.728Z,9.80
2018-12-20T03:02:58.568Z,9.43
2018-12-20T03:05:30.875Z,8.70
2018-12-20T03:08:00.700Z,10.40
2018-12-20T03:10:29.418Z,9.03
2018-12-20T03:13:00.301Z,9.40
2018-12-20T03:15:29.140Z,9.30
2018-12-20T03:17:58.918Z,8.23
2018-12-20T03:20:27.907Z,9.40
2018-12-20T03:22:56.689Z,9.03
2018-12-20T03:25:25.592Z,8.40
2018-12-20T03:27:54.344Z,8.00
2018-12-20T03:30:24.188Z,7.40
2018-12-20T03:32:53.531Z,7.70
2018-12-20T03:35:22.446Z,7.80
2018-12-20T03:37:51.206Z,6.87
2018-12-20T03:40:20.283Z,7.40
2018-12-20T03:42:49.137Z,6.50
2018-12-20T03:45:17.929Z,6.43
2018-12-20T03:47:47.614Z,5.57
2018-12-20T03:50:16.550Z,6.93
2018-12-20T03:52:45.481Z,6.80
2018-12-20T03:55:14.327Z,5.47
2018-12-20T03:57:43.249Z,6.43
2018-12-20T04:00:12.118Z,5.90
2018-12-20T04:02:41.188Z,6.40
2018-12-20T04:05:10.183Z,6.20
2018-12-20T04:07:39.128Z,5.80
2018-12-20T04:10:08.390Z,5.33
2018-12-20T04:12:37.439Z,5.37
2018-12-20T04:15:06.427Z,5.93
2018-12-20T04:17:35.332Z,5.40
2018-12-20T04:20:04.174Z,6.33
2018-12-20T04:22:33.383Z,5.63
2018-12-20T04:25:02.338Z,5.47
2018-12-20T04:27:32.273Z,5.60
2018-12-20T04:30:01.039Z,5.93
2018-12-20T04:32:30.112Z,6.97
2018-12-20T04:34:59.055Z,6.03
2018-12-20T04:37:28.063Z,5.77
2018-12-20T04:39:56.845Z,6.30
2018-12-20T04:42:25.595Z,6.47
2018-12-20T04:44:54.244Z,6.50
2018-12-20T04:47:24.160Z,5.90
2018-12-20T04:49:52.855Z,5.70
2018-12-20T04:52:21.575Z,6.13
2018-12-20T04:54:50.380Z,6.80
2018-12-20T04:57:19.458Z,5.57
2018-12-20T04:59:48.440Z,6.13
2018-12-20T05:02:17.344Z,5.27
2018-12-20T05:04:46.179Z,5.87
2018-12-20T05:07:14.913Z,7.00
2018-12-20T05:09:43.604Z,5.97
2018-12-20T05:12:12.505Z,5.43
2018-12-20T05:14:41.454Z,5.77
2018-12-20T05:17:10.259Z,5.00
2018-12-20T05:19:39.108Z,5.70
2018-12-20T05:22:07.928Z,6.17
2018-12-20T05:24:36.901Z,6.07
2018-12-20T05:27:05.701Z,5.97
2018-12-20T05:29:34.631Z,5.53
2018-12-20T05:32:03.556Z,4.80
2018-12-20T05:34:32.470Z,6.67
2018-12-20T05:37:01.511Z,6.00
2018-12-20T05:39:30.343Z,5.23
2018-12-20T05:42:00.168Z,4.50
2018-12-20T05:44:29.823Z,5.30
2018-12-20T05:46:58.867Z,4.57
2018-12-20T05:49:27.599Z,5.53
2018-12-20T05:51:56.255Z,4.77
2018-12-20T05:54:25.280Z,5.40
2018-12-20T05:56:54.109Z,5.63
2018-12-20T05:59:23.041Z,4.30
2018-12-20T06:01:52.895Z,4.57
2018-12-20T06:04:22.010Z,4.57
2018-12-20T06:06:50.738Z,4.13
2018-12-20T06:09:19.454Z,4.77
2018-12-20T06:11:48.288Z,3.90
2018-12-20T06:14:17.334Z,4.30
2018-12-20T06:16:46.286Z,5.43
2018-12-20T06:19:15.158Z,4.70
2018-12-20T06:21:44.123Z,5.47
2018-12-20T06:24:12.993Z,5.20
2018-12-20T06:26:41.906Z,4.97
2018-12-20T06:29:10.669Z,6.10
2018-12-20T06:31:39.461Z,5.27
2018-12-20T06:34:08.355Z,6.40
2018-12-20T06:36:38.059Z,6.10
2018-12-20T06:39:09.119Z,5.73
2018-12-20T06:41:39.945Z,6.20
2018-12-20T06:44:09.620Z,5.87
2018-12-20T06:46:43.047Z,5.50
2018-12-20T06:49:12.476Z,6.50
2018-12-20T06:51:41.283Z,6.77
2018-12-20T06:54:10.007Z,5.97
2018-12-20T06:56:38.790Z,6.90
2018-12-20T06:59:07.685Z,6.43
2018-12-20T07:01:36.555Z,7.00
2018-12-20T07:04:06.446Z,6.73
2018-12-20T07:06:36.259Z,6.27
2018-12-20T07:09:08.607Z,6.67
2018-12-20T07:11:37.359Z,6.33
2018-12-20T07:14:06.496Z,7.07
2018-12-20T07:16:35.481Z,7.60
2018-12-20T07:19:04.298Z,6.80
2018-12-20T07:21:32.980Z,12.30
2018-12-20T07:24:01.755Z,8.80
2018-12-20T07:26:31.582Z,9.50
2018-12-20T07:29:00.474Z,6.90
2018-12-20T07:31:29.185Z,6.70
2018-12-20T07:33:58.129Z,6.23
2018-12-20T07:36:26.829Z,8.27
2018-12-20T07:38:55.644Z,6.47
2018-12-20T07:41:24.442Z,6.87
2018-12-20T07:43:53.773Z,6.13
2018-12-20T07:46:22.600Z,6.63
2018-12-20T07:48:51.279Z,5.60
2018-12-20T07:51:21.273Z,6.00
2018-12-20T07:53:50.019Z,5.77
2018-12-20T07:56:20.012Z,6.37
2018-12-20T07:58:48.688Z,6.00
2018-12-20T08:01:17.466Z,5.93
2018-12-20T08:03:46.304Z,6.60
2018-12-20T08:06:15.082Z,4.87
2018-12-20T08:08:43.849Z,4.90
2018-12-20T08:11:12.812Z,5.10
2018-12-20T08:13:41.603Z,5.23
2018-12-20T08:16:10.367Z,4.87
2018-12-20T08:18:39.174Z,4.80
2018-12-20T08:21:08.168Z,5.37
2018-12-20T08:23:36.947Z,4.90
2018-12-20T08:26:05.783Z,4.40
2018-12-20T08:28:34.487Z,4.70
2018-12-20T08:31:03.232Z,4.77
2018-12-20T08:33:31.983Z,4.00
2018-12-20T08:36:01.348Z,3.90
2018-12-20T08:38:31.166Z,4.13
2018-12-20T08:40:59.966Z,3.53
2018-12-20T08:43:28.748Z,3.40
2018-12-20T08:45:57.624Z,3.70
2018-12-20T08:48:27.174Z,4.20
2018-12-20T08:50:55.950Z,3.30
2018-12-20T08:53:24.789Z,3.33
2018-12-20T08:55:54.631Z,3.00
2018-12-20T08:58:24.421Z,3.37
2018-12-20T09:00:53.470Z,3.00
2018-12-20T09:03:23.312Z,3.10
2018-12-20T09:05:52.162Z,2.83
2018-12-20T09:08:21.058Z,3.20
2018-12-20T09:10:49.824Z,3.60
2018-12-20T09:13:18.690Z,3.87
2018-12-20T09:15:47.428Z,3.50
2018-12-20T09:18:16.129Z,3.30
2018-12-20T09:20:44.853Z,3.33
2018-12-20T09:23:13.682Z,3.83
2018-12-20T09:25:42.582Z,2.90
2018-12-20T09:28:11.379Z,3.43
2018-12-20T09:30:40.041Z,3.37
2018-12-20T09:33:09.272Z,3.90
2018-12-20T09:35:37.998Z,3.27
2018-12-20T09:38:06.931Z,3.60
2018-12-20T09:40:35.623Z,4.53
2018-12-20T09:43:06.157Z,2.93
2018-12-20T09:45:34.919Z,2.87
2018-12-20T09:48:05.986Z,2.80
2018-12-20T09:50:35.271Z,3.10
2018-12-20T09:53:04.291Z,3.00
2018-12-20T09:55:33.221Z,3.50
2018-12-20T09:58:01.973Z,3.30
2018-12-20T10:00:30.729Z,3.00
2018-12-20T10:02:59.446Z,2.37
2018-12-20T10:05:28.240Z,3.40
2018-12-20T10:07:57.038Z,2.23
2018-12-20T10:10:25.993Z,3.40
2018-12-20T10:12:54.672Z,2.13
2018-12-20T10:15:23.364Z,3.00
2018-12-20T10:17:52.074Z,3.23
2018-12-20T10:20:20.988Z,3.30
2018-12-20T10:22:49.833Z,3.20
2018-12-20T10:25:18.534Z,3.20
2018-12-20T10:27:47.419Z,2.93
2018-12-20T10:30:16.110Z,3.17
2018-12-20T10:32:44.777Z,3.40
2018-12-20T10:35:14.022Z,3.70
2018-12-20T10:37:42.764Z,3.37
2018-12-20T10:40:11.670Z,4.27
2018-12-20T10:42:40.455Z,3.40
2018-12-20T10:45:09.601Z,2.73
2018-12-20T10:47:38.257Z,2.33
2018-12-20T10:50:08.265Z,3.30
2018-12-20T10:52:36.950Z,2.73
2018-12-20T10:55:06.371Z,2.50
2018-12-20T10:57:35.030Z,2.70
2018-12-20T11:00:04.360Z,2.30
2018-12-20T11:02:38.688Z,2.63
2018-12-20T11:05:12.767Z,2.20
2018-12-20T11:07:46.608Z,3.03
2018-12-20T11:10:25.318Z,2.60
2018-12-20T11:12:54.078Z,2.67
2018-12-20T11:15:24.001Z,3.90
2018-12-20T11:17:52.685Z,2.17
2018-12-20T11:20:21.599Z,2.47
2018-12-20T11:22:51.246Z,3.30
2018-12-20T11:25:20.039Z,2.53
2018-12-20T11:27:48.962Z,3.10
2018-12-20T11:30:17.675Z,2.77
2018-12-20T11:32:46.363Z,3.63
2018-12-20T11:35:15.191Z,2.27
2018-12-20T11:37:43.938Z,2.30
2018-12-20T11:40:12.634Z,2.80
2018-12-20T11:42:41.354Z,2.90
2018-12-20T11:45:10.312Z,3.00
2018-12-20T11:47:45.934Z,2.70
2018-12-20T11:50:10.039Z,3.53
2018-12-20T11:52:42.417Z,3.60
2018-12-20T11:55:11.013Z,3.20
2018-12-20T11:57:39.960Z,4.50
2018-12-20T12:00:10.823Z,2.20
2018-12-20T12:02:39.658Z,3.40
2018-12-20T12:05:08.655Z,3.90
2018-12-20T12:07:37.387Z,3.50
2018-12-20T12:10:06.895Z,2.80
2018-12-20T12:12:35.683Z,2.60
2018-12-20T12:15:05.083Z,3.20
2018-12-20T12:17:33.965Z,3.17
2018-12-20T12:20:02.852Z,4.47
2018-12-20T12:22:31.723Z,2.70
2018-12-20T12:25:00.539Z,3.53
2018-12-20T12:27:29.357Z,2.30
2018-12-20T12:29:58.208Z,2.97
2018-12-20T12:32:27.121Z,3.13
2018-12-20T12:34:55.963Z,2.80
2018-12-20T12:37:24.818Z,4.13
2018-12-20T12:39:53.863Z,2.93
2018-12-20T12:42:22.963Z,3.30
2018-12-20T12:44:51.815Z,2.80
2018-12-20T12:47:24.901Z,2.80
2018-12-20T12:49:53.728Z,2.33
2018-12-20T12:52:22.764Z,2.87
2018-12-20T12:54:51.681Z,3.13
2018-12-20T12:57:22.433Z,2.33
2018-12-20T12:59:51.399Z,3.10
2018-12-20T13:02:20.218Z,3.00
2018-12-20T13:04:49.189Z,2.50
2018-12-20T13:07:18.162Z,3.67
2018-12-20T13:09:47.050Z,2.70
2018-12-20T13:12:16.029Z,3.00
2018-12-20T13:14:44.835Z,2.40
2018-12-20T13:17:13.855Z,1.90
2018-12-20T13:19:42.708Z,2.90
2018-12-20T13:22:11.641Z,2.30
2018-12-20T13:24:40.629Z,2.33
2018-12-20T13:27:09.531Z,2.00
2018-12-20T13:29:38.416Z,2.70
2018-12-20T13:32:07.346Z,2.13
2018-12-20T13:34:36.592Z,2.20
2018-12-20T13:37:06.313Z,2.00
2018-12-20T13:39:35.411Z,3.20
2018-12-20T13:42:04.501Z,2.53
2018-12-20T13:44:33.860Z,2.00
2018-12-20T13:47:02.808Z,2.60
2018-12-20T13:49:31.768Z,2.13
2018-12-20T13:52:01.328Z,2.10
2018-12-20T13:54:30.532Z,2.27
2018-12-20T13:56:59.385Z,2.00
2018-12-20T13:59:28.550Z,2.60
2018-12-20T14:01:57.481Z,2.30
2018-12-20T14:04:26.356Z,3.20
2018-12-20T14:06:55.268Z,1.93
2018-12-20T14:09:24.128Z,3.00
2018-12-20T14:11:53.140Z,2.50
2018-12-20T14:14:22.133Z,1.80
2018-12-20T14:16:51.255Z,2.03
2018-12-20T14:19:20.625Z,2.30
2018-12-20T14:21:49.416Z,2.67
2018-12-20T14:24:18.319Z,4.00
2018-12-20T14:26:47.462Z,2.43
2018-12-20T14:29:16.513Z,2.57
2018-12-20T14:31:45.300Z,3.00
2018-12-20T14:34:14.697Z,2.27
2018-12-20T14:36:43.566Z,3.57
2018-12-20T14:39:12.693Z,4.50
2018-12-20T14:41:41.806Z,2.57
2018-12-20T14:44:10.690Z,3.60
2018-12-20T14:46:39.397Z,3.00
2018-12-20T14:49:08.349Z,2.50
2018-12-20T14:51:37.154Z,3.10
2018-12-20T14:54:06.273Z,3.50
2018-12-20T14:56:35.240Z,3.60
2018-12-20T14:59:04.331Z,3.10
2018-12-20T15:01:33.315Z,3.20
2018-12-20T15:04:02.194Z,2.80
2018-12-20T15:06:30.962Z,2.30
2018-12-20T15:08:59.984Z,3.43
2018-12-20T15:11:28.969Z,2.70
2018-12-20T15:13:57.781Z,2.70
2018-12-20T15:16:26.524Z,3.20
2018-12-20T15:18:55.462Z,3.97
2018-12-20T15:21:24.267Z,3.30
2018-12-20T15:23:53.276Z,4.60
2018-12-20T15:26:22.127Z,3.57
2018-12-20T15:28:50.874Z,3.90
2018-12-20T15:31:19.850Z,3.77
2018-12-20T15:33:50.567Z,3.33
2018-12-20T15:36:19.710Z,5.20
2018-12-20T15:38:49.864Z,3.00
2018-12-20T15:41:18.979Z,3.30
2018-12-20T15:43:48.066Z,3.63
2018-12-20T15:46:16.974Z,3.90
2018-12-20T15:48:45.926Z,3.00
2018-12-20T15:51:14.875Z,3.43
2018-12-20T15:53:43.719Z,3.57
2018-12-20T15:56:12.528Z,7.60
2018-12-20T15:58:41.526Z,5.27
2018-12-20T16:01:10.525Z,3.43
2018-12-20T16:03:39.617Z,5.10
2018-12-20T16:06:09.008Z,4.17
2018-12-20T16:08:38.122Z,5.63
2018-12-20T16:11:08.357Z,3.87
2018-12-20T16:13:37.282Z,5.20
2018-12-20T16:16:06.306Z,4.50
2018-12-20T16:18:35.255Z,4.20
2018-12-20T16:21:04.213Z,3.03
2018-12-20T16:23:33.178Z,4.37
2018-12-20T16:26:02.219Z,3.10
2018-12-20T16:28:31.086Z,4.10
2018-12-20T16:31:00.026Z,3.47
2018-12-20T16:33:29.509Z,3.60
2018-12-20T16:35:58.553Z,3.00
2018-12-20T16:38:27.475Z,3.83
2018-12-20T16:40:56.441Z,3.43
2018-12-20T16:43:26.601Z,3.90
2018-12-20T16:45:56.489Z,4.27
2018-12-20T16:48:25.493Z,3.70
2018-12-20T16:50:54.697Z,3.50
2018-12-20T16:53:23.695Z,3.80
2018-12-20T16:55:52.691Z,4.30
2018-12-20T16:58:21.910Z,4.10
2018-12-20T17:00:51.168Z,3.83
2018-12-20T17:03:20.970Z,4.60
2018-12-20T17:05:50.723Z,3.90
2018-12-20T17:08:19.875Z,3.77
2018-12-20T17:10:48.797Z,3.53
2018-12-20T17:13:17.944Z,4.40
2018-12-20T17:15:46.963Z,4.03
2018-12-20T17:18:16.036Z,3.50
2018-12-20T17:20:45.115Z,3.53
2018-12-20T17:23:14.810Z,4.57
2018-12-20T17:25:46.961Z,3.97
2018-12-20T17:28:15.981Z,3.00
2018-12-20T17:30:46.158Z,3.00
2018-12-20T17:33:15.187Z,4.17
2018-12-20T17:35:44.250Z,3.70
2018-12-20T17:38:13.369Z,3.97
2018-12-20T17:40:42.204Z,2.80
2018-12-20T17:43:11.453Z,2.97
2018-12-20T17:45:40.389Z,3.87
2018-12-20T17:48:10.232Z,3.13
2018-12-20T17:50:40.381Z,3.10
2018-12-20T17:53:09.255Z,3.77
2018-12-20T17:55:44.688Z,3.40
2018-12-20T17:58:09.483Z,3.27
2018-12-20T18:00:38.495Z,4.10
2018-12-20T18:03:07.590Z,3.83
2018-12-20T18:05:36.468Z,3.27
2018-12-20T18:08:06.290Z,3.50
2018-12-20T18:10:35.286Z,3.20
2018-12-20T18:13:04.705Z,2.87
2018-12-20T18:15:33.682Z,2.90
2018-12-20T18:18:02.615Z,4.90
2018-12-20T18:20:31.789Z,3.63
2018-12-20T18:23:00.685Z,2.60
2018-12-20T18:25:30.800Z,2.53
2018-12-20T18:27:59.491Z,3.53
2018-12-20T18:30:28.357Z,3.50
2018-12-20T18:32:57.172Z,2.60
2018-12-20T18:35:26.162Z,3.10
2018-12-20T18:37:57.181Z,3.40
2018-12-20T18:40:26.277Z,3.00
2018-12-20T18:42:55.397Z,5.00
2018-12-20T18:45:24.446Z,3.47
2018-12-20T18:47:53.616Z,3.23
2018-12-20T18:50:22.888Z,2.87
2018-12-20T18:52:51.907Z,3.17
2018-12-20T18:55:20.978Z,3.83
2018-12-20T18:57:49.978Z,3.10
2018-12-20T19:00:19.114Z,3.00
2018-12-20T19:02:47.980Z,3.10
2018-12-20T19:05:18.230Z,3.00
2018-12-20T19:07:47.186Z,3.40
2018-12-20T19:10:16.460Z,2.10
2018-12-20T19:12:46.055Z,2.80
2018-12-20T19:15:15.087Z,2.23
2018-12-20T19:17:43.966Z,2.30
2018-12-20T19:20:16.291Z,2.90
2018-12-20T19:22:44.382Z,2.60
2018-12-20T19:25:14.353Z,2.10
2018-12-20T19:27:43.324Z,2.60
2018-12-20T19:30:12.622Z,2.33
2018-12-20T19:32:42.602Z,2.70
2018-12-20T19:35:11.647Z,2.00
2018-12-20T19:37:40.623Z,2.20
2018-12-20T19:40:11.660Z,2.47
2018-12-20T19:42:40.621Z,3.20
2018-12-20T19:45:09.772Z,2.30
2018-12-20T19:47:40.894Z,2.27
2018-12-20T19:50:10.901Z,2.30
2018-12-20T19:52:39.935Z,3.43
2018-12-20T19:55:09.129Z,3.70
2018-12-20T19:57:38.962Z,2.83
2018-12-20T20:00:12.445Z,3.07
2018-12-20T20:02:41.603Z,2.50
2018-12-20T20:05:11.028Z,2.90
2018-12-20T20:07:40.204Z,2.00
2018-12-20T20:10:11.068Z,2.87
2018-12-20T20:12:39.979Z,2.63
2018-12-20T20:15:16.423Z,2.60
2018-12-20T20:17:42.221Z,2.70
2018-12-20T20:20:14.337Z,2.33
2018-12-20T20:22:42.260Z,3.07
2018-12-20T20:25:11.411Z,3.00
2018-12-20T20:27:40.552Z,2.73
2018-12-20T20:30:13.570Z,3.07
2018-12-20T20:32:43.420Z,2.40
2018-12-20T20:38:15.658Z,2.60
2018-12-20T20:40:44.739Z,3.10
2018-12-20T20:52:15.620Z,2.80
2018-12-20T20:54:44.408Z,2.80
2018-12-20T20:57:13.195Z,3.03
2018-12-20T20:59:50.636Z,3.20
2018-12-20T21:02:13.084Z,2.70
2018-12-20T21:04:43.091Z,3.33
2018-12-20T21:07:11.867Z,3.23
2018-12-20T21:09:40.715Z,3.17
2018-12-20T21:12:09.500Z,3.00
2018-12-20T21:14:39.683Z,3.30
2018-12-20T21:17:08.651Z,2.50
2018-12-20T21:19:37.539Z,3.40
2018-12-20T21:24:57.689Z,3.60
2018-12-20T21:27:28.816Z,3.20
2018-12-20T21:29:58.033Z,3.60
2018-12-20T21:32:27.208Z,3.20
2018-12-20T21:35:13.995Z,4.20
2018-12-20T21:37:42.980Z,3.37
2018-12-20T21:40:11.855Z,3.17
2018-12-20T21:42:40.647Z,3.80
2018-12-20T21:45:09.988Z,3.83
2018-12-20T21:47:38.747Z,5.37
2018-12-20T21:50:12.293Z,3.87
2018-12-20T21:52:41.117Z,4.20
2018-12-20T21:55:13.744Z,4.03
2018-12-20T21:57:42.469Z,4.03
2018-12-20T22:00:12.021Z,3.53
2018-12-20T22:02:40.718Z,4.47
2018-12-20T22:05:09.650Z,4.33
2018-12-20T22:07:38.405Z,3.77
2018-12-20T22:10:08.187Z,3.73
2018-12-20T22:12:37.978Z,4.10
2018-12-20T22:15:09.668Z,3.27
2018-12-20T22:17:38.455Z,4.10
2018-12-20T22:20:07.691Z,3.23
2018-12-20T22:22:37.451Z,3.50
2018-12-20T22:25:07.467Z,3.40
2018-12-20T22:27:36.126Z,3.17
2018-12-20T22:30:09.850Z,3.07
2018-12-20T22:32:38.981Z,3.10
2018-12-20T22:35:07.943Z,3.83
2018-12-20T22:37:36.596Z,3.07
2018-12-20T22:40:06.740Z,3.57
2018-12-20T22:42:35.497Z,3.23
2018-12-20T22:45:05.174Z,3.37
2018-12-20T22:47:33.893Z,3.37
2018-12-20T22:50:05.422Z,3.17
2018-12-20T22:52:34.456Z,3.33
2018-12-20T22:55:03.531Z,3.30
2018-12-20T22:57:32.375Z,3.47
2018-12-20T23:00:01.178Z,3.23
2018-12-20T23:02:30.093Z,3.17
2018-12-20T23:04:58.904Z,3.70
2018-12-20T23:07:27.834Z,3.30
2018-12-20T23:09:56.610Z,3.60
2018-12-20T23:12:25.635Z,3.57
2018-12-20T23:14:55.982Z,3.27
2018-12-20T23:17:24.789Z,3.50
2018-12-20T23:19:53.727Z,3.37
2018-12-20T23:22:22.546Z,3.40
2018-12-20T23:24:51.323Z,3.80
2018-12-20T23:27:21.074Z,3.27
2018-12-20T23:29:53.245Z,3.83
2018-12-20T23:32:22.033Z,3.50
2018-12-20T23:34:52.851Z,4.30
2018-12-20T23:37:21.611Z,3.70
2018-12-20T23:39:50.573Z,3.53
2018-12-20T23:42:19.353Z,3.67
2018-12-20T23:44:50.113Z,3.60
2018-12-20T23:47:18.828Z,2.90
2018-12-20T23:49:47.653Z,3.50
2018-12-20T23:52:17.359Z,3.13
2018-12-20T23:54:46.110Z,2.90
2018-12-20T23:57:15.111Z,3.40
2018-12-20T23:59:43.820Z,3.40
